createdAt,value
2022-09-30T00:00:51.621Z,6.75
2022-09-30T00:01:51.661Z,6.73
2022-09-30T00:02:51.641Z,6.71
2022-09-30T00:03:51.535Z,6.70
2022-09-30T00:04:51.538Z,6.67
2022-09-30T00:05:51.503Z,6.67
2022-09-30T00:06:51.535Z,6.67
2022-09-30T00:07:51.558Z,6.67
2022-09-30T00:08:51.470Z,6.67
2022-09-30T00:09:51.451Z,6.65
2022-09-30T00:10:51.467Z,6.67
2022-09-30T00:11:51.457Z,6.64
2022-09-30T00:12:51.473Z,6.65
2022-09-30T00:13:51.402Z,6.65
2022-09-30T00:14:51.396Z,6.68
2022-09-30T00:15:51.441Z,6.74
2022-09-30T00:16:51.377Z,6.81
2022-09-30T00:17:51.405Z,6.81
2022-09-30T00:18:51.347Z,6.81
2022-09-30T00:19:51.322Z,6.78
2022-09-30T00:20:51.324Z,6.78
2022-09-30T00:21:51.316Z,6.78
2022-09-30T00:22:51.333Z,6.79
2022-09-30T00:23:51.268Z,6.83
2022-09-30T00:24:51.265Z,6.89
2022-09-30T00:25:51.257Z,6.93
2022-09-30T00:26:51.258Z,7.01
2022-09-30T00:27:51.217Z,7.06
2022-09-30T00:28:51.269Z,7.10
2022-09-30T00:29:51.260Z,7.06
2022-09-30T00:30:51.220Z,7.08
2022-09-30T00:31:51.517Z,7.08
2022-09-30T00:32:51.165Z,7.07
2022-09-30T00:33:51.144Z,7.11
2022-09-30T00:34:51.133Z,7.13
2022-09-30T00:35:51.126Z,7.22
2022-09-30T00:36:51.123Z,7.26
2022-09-30T00:37:51.107Z,7.33
2022-09-30T00:38:51.080Z,7.37
2022-09-30T00:39:51.078Z,7.43
2022-09-30T00:40:51.054Z,7.43
2022-09-30T00:41:51.070Z,7.42
2022-09-30T00:42:51.041Z,7.44
2022-09-30T00:43:51.025Z,7.47
2022-09-30T00:44:51.215Z,7.55
2022-09-30T00:45:50.992Z,7.61
2022-09-30T00:46:51.083Z,7.64
2022-09-30T00:47:50.963Z,7.66
2022-09-30T00:48:51.006Z,7.68
2022-09-30T00:49:50.944Z,7.62
2022-09-30T00:50:50.918Z,7.60
2022-09-30T00:51:50.946Z,7.60
2022-09-30T00:52:50.898Z,7.55
2022-09-30T00:53:50.885Z,7.55
2022-09-30T00:54:50.867Z,7.57
2022-09-30T00:55:50.863Z,7.60
2022-09-30T00:56:50.923Z,7.62
2022-09-30T00:57:50.847Z,7.62
2022-09-30T00:58:50.825Z,7.64
2022-09-30T00:59:50.868Z,7.64
2022-09-30T01:00:50.900Z,7.66
2022-09-30T01:01:50.839Z,7.64
2022-09-30T01:02:50.767Z,7.62
2022-09-30T01:03:50.762Z,7.62
2022-09-30T01:04:50.757Z,7.62
2022-09-30T01:05:50.721Z,7.61
2022-09-30T01:06:50.726Z,7.61
2022-09-30T01:07:50.697Z,7.61
2022-09-30T01:08:50.687Z,7.61
2022-09-30T01:09:50.687Z,7.60
2022-09-30T01:10:50.668Z,7.60
2022-09-30T01:11:50.699Z,7.57
2022-09-30T01:12:50.637Z,7.55
2022-09-30T01:13:50.617Z,7.54
2022-09-30T01:14:50.608Z,7.54
2022-09-30T01:15:50.704Z,7.55
2022-09-30T01:16:50.593Z,7.55
2022-09-30T01:17:50.562Z,7.54
2022-09-30T01:18:50.550Z,7.52
2022-09-30T01:19:50.549Z,7.49
2022-09-30T01:20:50.565Z,7.47
2022-09-30T01:21:50.528Z,7.47
2022-09-30T01:22:50.509Z,7.44
2022-09-30T01:23:50.494Z,7.42
2022-09-30T01:24:50.470Z,7.40
2022-09-30T01:25:50.454Z,7.40
2022-09-30T01:26:50.476Z,7.42
2022-09-30T01:27:50.437Z,7.42
2022-09-30T01:28:50.419Z,7.42
2022-09-30T01:29:50.407Z,7.42
2022-09-30T01:30:50.428Z,7.40
2022-09-30T01:31:50.459Z,7.40
2022-09-30T01:32:50.373Z,7.37
2022-09-30T01:33:50.356Z,7.39
2022-09-30T01:34:50.348Z,7.37
2022-09-30T01:35:50.333Z,7.37
2022-09-30T01:36:50.341Z,7.40
2022-09-30T01:37:50.304Z,7.37
2022-09-30T01:38:50.296Z,7.40
2022-09-30T01:39:50.300Z,7.39
2022-09-30T01:40:50.275Z,7.40
2022-09-30T01:41:50.264Z,7.42
2022-09-30T01:42:50.233Z,7.42
2022-09-30T01:43:50.258Z,7.42
2022-09-30T01:44:50.230Z,7.40
2022-09-30T01:45:50.205Z,7.42
2022-09-30T01:46:50.317Z,7.42
2022-09-30T01:47:50.169Z,7.40
2022-09-30T01:48:50.208Z,7.42
2022-09-30T01:49:50.166Z,7.39
2022-09-30T01:50:50.133Z,7.39
2022-09-30T01:51:50.128Z,7.39
2022-09-30T01:52:50.113Z,7.39
2022-09-30T01:53:50.092Z,7.39
2022-09-30T01:54:50.102Z,7.39
2022-09-30T01:55:50.056Z,7.39
2022-09-30T01:56:50.069Z,7.37
2022-09-30T01:57:50.040Z,7.37
2022-09-30T01:58:50.036Z,7.34
2022-09-30T01:59:50.013Z,7.36
2022-09-30T02:00:50.093Z,7.37
2022-09-30T02:01:50.038Z,7.36
2022-09-30T02:02:49.976Z,7.34
2022-09-30T02:03:49.960Z,7.31
2022-09-30T02:04:49.998Z,7.29
2022-09-30T02:05:49.931Z,7.28
2022-09-30T02:06:49.948Z,7.25
2022-09-30T02:07:49.911Z,7.24
2022-09-30T02:08:49.920Z,7.22
2022-09-30T02:09:49.917Z,7.22
2022-09-30T02:10:49.875Z,7.22
2022-09-30T02:11:50.226Z,7.22
2022-09-30T02:12:49.924Z,7.24
2022-09-30T02:13:49.829Z,7.22
2022-09-30T02:14:49.826Z,7.19
2022-09-30T02:15:49.908Z,7.19
2022-09-30T02:16:49.816Z,7.19
2022-09-30T02:17:49.794Z,7.16
2022-09-30T02:18:49.767Z,7.15
2022-09-30T02:19:49.741Z,7.13
2022-09-30T02:20:49.733Z,7.11
2022-09-30T02:21:49.743Z,7.11
2022-09-30T02:22:49.714Z,7.08
2022-09-30T02:23:49.744Z,7.06
2022-09-30T02:24:49.688Z,7.04
2022-09-30T02:25:49.667Z,7.04
2022-09-30T02:26:49.718Z,7.01
2022-09-30T02:27:49.648Z,7.01
2022-09-30T02:28:49.641Z,7.01
2022-09-30T02:29:49.621Z,7.01
2022-09-30T02:30:49.613Z,7.01
2022-09-30T02:31:49.652Z,7.01
2022-09-30T02:32:49.578Z,7.01
2022-09-30T02:33:49.557Z,6.97
2022-09-30T02:34:49.577Z,6.96
2022-09-30T02:35:49.548Z,6.92
2022-09-30T02:36:49.544Z,6.92
2022-09-30T02:37:49.508Z,6.92
2022-09-30T02:38:49.525Z,6.92
2022-09-30T02:39:49.491Z,6.89
2022-09-30T02:40:49.510Z,6.89
2022-09-30T02:41:49.526Z,6.91
2022-09-30T02:42:49.463Z,6.93
2022-09-30T02:43:49.447Z,6.96
2022-09-30T02:44:49.429Z,6.99
2022-09-30T02:45:49.416Z,6.96
2022-09-30T02:46:49.488Z,6.96
2022-09-30T02:47:49.401Z,6.99
2022-09-30T02:48:49.376Z,6.99
2022-09-30T02:49:49.384Z,7.00
2022-09-30T02:50:49.372Z,7.03
2022-09-30T02:51:49.347Z,7.04
2022-09-30T02:52:49.318Z,7.04
2022-09-30T02:53:49.305Z,7.01
2022-09-30T02:54:49.298Z,7.01
2022-09-30T02:55:49.287Z,7.01
2022-09-30T02:56:49.259Z,7.01
2022-09-30T02:57:49.254Z,7.03
2022-09-30T02:58:49.242Z,7.00
2022-09-30T02:59:49.231Z,6.99
2022-09-30T03:00:49.316Z,6.97
2022-09-30T03:01:49.279Z,6.97
2022-09-30T03:02:49.186Z,6.93
2022-09-30T03:03:49.170Z,6.96
2022-09-30T03:04:49.158Z,6.96
2022-09-30T03:05:49.160Z,6.93
2022-09-30T03:06:49.130Z,6.91
2022-09-30T03:07:49.159Z,6.91
2022-09-30T03:08:49.113Z,6.88
2022-09-30T03:09:49.178Z,6.85
2022-09-30T03:10:49.100Z,6.85
2022-09-30T03:11:49.062Z,6.82
2022-09-30T03:12:49.064Z,6.85
2022-09-30T03:13:49.047Z,6.88
2022-09-30T03:14:49.026Z,6.88
2022-09-30T03:15:49.101Z,6.89
2022-09-30T03:16:49.011Z,6.89
2022-09-30T03:17:48.982Z,6.89
2022-09-30T03:18:48.985Z,6.88
2022-09-30T03:19:48.961Z,6.88
2022-09-30T03:20:48.971Z,6.86
2022-09-30T03:21:48.932Z,6.85
2022-09-30T03:22:48.918Z,6.83
2022-09-30T03:23:48.927Z,6.88
2022-09-30T03:24:48.898Z,6.89
2022-09-30T03:25:48.910Z,6.91
2022-09-30T03:26:48.872Z,6.91
2022-09-30T03:27:48.862Z,6.89
2022-09-30T03:28:48.843Z,6.92
2022-09-30T03:29:48.827Z,6.91
2022-09-30T03:30:48.850Z,6.92
2022-09-30T03:31:48.849Z,6.92
2022-09-30T03:32:48.780Z,6.93
2022-09-30T03:33:48.788Z,6.93
2022-09-30T03:34:48.815Z,6.93
2022-09-30T03:35:48.770Z,6.96
2022-09-30T03:36:48.773Z,6.93
2022-09-30T03:37:48.713Z,6.93
2022-09-30T03:38:48.713Z,6.93
2022-09-30T03:39:48.690Z,6.93
2022-09-30T03:40:48.698Z,6.96
2022-09-30T03:41:48.672Z,6.96
2022-09-30T03:42:48.671Z,6.97
2022-09-30T03:43:48.641Z,6.96
2022-09-30T03:44:48.634Z,6.93
2022-09-30T03:45:48.638Z,6.93
2022-09-30T03:46:48.649Z,6.92
2022-09-30T03:47:48.591Z,6.92
2022-09-30T03:48:48.592Z,6.96
2022-09-30T03:49:48.560Z,6.96
2022-09-30T03:50:48.583Z,6.96
2022-09-30T03:51:50.923Z,6.93
2022-09-30T03:52:48.529Z,6.92
2022-09-30T03:53:48.543Z,6.92
2022-09-30T03:54:48.527Z,6.91
2022-09-30T03:55:48.507Z,6.91
2022-09-30T03:56:48.497Z,6.91
2022-09-30T03:57:48.478Z,6.89
2022-09-30T03:58:48.489Z,6.86
2022-09-30T03:59:48.437Z,6.88
2022-09-30T04:00:48.558Z,6.88
2022-09-30T04:01:48.507Z,6.91
2022-09-30T04:02:48.401Z,6.89
2022-09-30T04:03:48.372Z,6.88
2022-09-30T04:04:48.365Z,6.86
2022-09-30T04:05:48.382Z,6.85
2022-09-30T04:06:48.347Z,6.83
2022-09-30T04:07:48.323Z,6.83
2022-09-30T04:08:48.322Z,6.88
2022-09-30T04:09:48.392Z,6.88
2022-09-30T04:10:48.334Z,6.89
2022-09-30T04:11:48.266Z,6.86
2022-09-30T04:12:48.260Z,6.89
2022-09-30T04:13:48.242Z,6.88
2022-09-30T04:14:48.236Z,6.88
2022-09-30T04:15:48.249Z,6.88
2022-09-30T04:16:51.852Z,6.88
2022-09-30T04:17:48.204Z,6.86
2022-09-30T04:18:48.180Z,6.86
2022-09-30T04:19:48.163Z,6.85
2022-09-30T04:20:48.182Z,6.86
2022-09-30T04:21:48.158Z,6.86
2022-09-30T04:22:48.139Z,6.85
2022-09-30T04:23:48.123Z,6.82
2022-09-30T04:24:48.099Z,6.81
2022-09-30T04:25:48.154Z,6.79
2022-09-30T04:26:48.077Z,6.74
2022-09-30T04:27:48.080Z,6.71
2022-09-30T04:28:48.052Z,6.71
2022-09-30T04:29:48.037Z,6.71
2022-09-30T04:30:48.045Z,6.71
2022-09-30T04:31:48.085Z,6.70
2022-09-30T04:32:47.995Z,6.68
2022-09-30T04:33:48.000Z,6.67
2022-09-30T04:34:47.972Z,6.65
2022-09-30T04:35:48.077Z,6.65
2022-09-30T04:36:47.981Z,6.64
2022-09-30T04:37:47.939Z,6.63
2022-09-30T04:38:47.914Z,6.60
2022-09-30T04:39:47.926Z,6.61
2022-09-30T04:40:47.923Z,6.60
2022-09-30T04:41:47.878Z,6.60
2022-09-30T04:42:47.874Z,6.61
2022-09-30T04:43:47.880Z,6.63
2022-09-30T04:44:47.838Z,6.61
2022-09-30T04:45:47.900Z,6.61
2022-09-30T04:46:47.833Z,6.60
2022-09-30T04:47:47.806Z,6.57
2022-09-30T04:48:47.849Z,6.57
2022-09-30T04:49:47.787Z,6.56
2022-09-30T04:50:47.784Z,6.57
2022-09-30T04:51:47.746Z,6.56
2022-09-30T04:52:47.809Z,6.55
2022-09-30T04:53:47.728Z,6.53
2022-09-30T04:54:47.727Z,6.56
2022-09-30T04:55:47.728Z,6.56
2022-09-30T04:56:47.683Z,6.57
2022-09-30T04:57:47.674Z,6.57
2022-09-30T04:58:47.746Z,6.56
2022-09-30T04:59:47.600Z,6.56
2022-09-30T05:00:47.719Z,6.57
2022-09-30T05:01:47.656Z,6.63
2022-09-30T05:02:47.651Z,6.64
2022-09-30T05:03:47.560Z,6.64
2022-09-30T05:04:47.532Z,6.64
2022-09-30T05:05:47.606Z,6.64
2022-09-30T05:06:47.553Z,6.64
2022-09-30T05:07:47.513Z,6.65
2022-09-30T05:08:47.472Z,6.64
2022-09-30T05:09:47.545Z,6.63
2022-09-30T05:10:47.493Z,6.60
2022-09-30T05:11:47.448Z,6.60
2022-09-30T05:12:47.421Z,6.56
2022-09-30T05:13:47.415Z,6.56
2022-09-30T05:14:47.397Z,6.55
2022-09-30T05:15:47.463Z,6.55
2022-09-30T05:16:47.386Z,6.52
2022-09-30T05:17:47.354Z,6.50
2022-09-30T05:18:47.349Z,6.52
2022-09-30T05:19:47.331Z,6.52
2022-09-30T05:20:47.348Z,6.53
2022-09-30T05:21:47.307Z,6.53
2022-09-30T05:22:47.301Z,6.52
2022-09-30T05:23:47.290Z,6.53
2022-09-30T05:24:47.263Z,6.53
2022-09-30T05:25:47.274Z,6.53
2022-09-30T05:26:47.240Z,6.53
2022-09-30T05:27:47.242Z,6.53
2022-09-30T05:28:47.218Z,6.53
2022-09-30T05:29:47.227Z,6.55
2022-09-30T05:30:47.205Z,6.53
2022-09-30T05:31:47.295Z,6.53
2022-09-30T05:32:47.161Z,6.52
2022-09-30T05:33:47.151Z,6.55
2022-09-30T05:34:47.136Z,6.53
2022-09-30T05:35:47.152Z,6.55
2022-09-30T05:36:47.114Z,6.57
2022-09-30T05:37:47.097Z,6.56
2022-09-30T05:38:47.078Z,6.56
2022-09-30T05:39:47.072Z,6.57
2022-09-30T05:40:47.082Z,6.61
2022-09-30T05:41:47.046Z,6.63
2022-09-30T05:42:47.037Z,6.61
2022-09-30T05:43:47.022Z,6.61
2022-09-30T05:44:47.052Z,6.64
2022-09-30T05:45:47.010Z,6.67
2022-09-30T05:46:47.026Z,6.68
2022-09-30T05:47:46.975Z,6.68
2022-09-30T05:48:46.977Z,6.68
2022-09-30T05:49:46.942Z,6.70
2022-09-30T05:50:46.956Z,6.68
2022-09-30T05:51:46.914Z,6.68
2022-09-30T05:52:46.896Z,6.70
2022-09-30T05:53:46.954Z,6.73
2022-09-30T05:54:46.894Z,6.71
2022-09-30T05:55:46.884Z,6.71
2022-09-30T05:56:46.848Z,6.73
2022-09-30T05:57:46.835Z,6.73
2022-09-30T05:58:46.821Z,6.73
2022-09-30T05:59:46.829Z,6.74
2022-09-30T06:00:46.804Z,6.78
2022-09-30T06:01:46.935Z,6.75
2022-09-30T06:02:46.888Z,6.78
2022-09-30T06:03:46.777Z,6.81
2022-09-30T06:04:46.768Z,6.81
2022-09-30T06:05:46.749Z,6.82
2022-09-30T06:06:46.718Z,6.83
2022-09-30T06:07:46.715Z,6.86
2022-09-30T06:08:46.690Z,6.85
2022-09-30T06:09:46.730Z,6.86
2022-09-30T06:10:46.686Z,6.89
2022-09-30T06:11:46.675Z,6.91
2022-09-30T06:12:46.632Z,6.92
2022-09-30T06:13:46.640Z,6.92
2022-09-30T06:14:46.667Z,6.96
2022-09-30T06:15:46.661Z,6.99
2022-09-30T06:16:46.646Z,6.99
2022-09-30T06:17:46.573Z,6.99
2022-09-30T06:18:46.563Z,7.01
2022-09-30T06:19:46.561Z,7.01
2022-09-30T06:20:46.549Z,7.01
2022-09-30T06:21:46.523Z,7.01
2022-09-30T06:22:46.512Z,7.04
2022-09-30T06:23:46.513Z,7.03
2022-09-30T06:24:46.482Z,7.06
2022-09-30T06:25:46.488Z,7.07
2022-09-30T06:26:46.459Z,7.11
2022-09-30T06:27:46.439Z,7.15
2022-09-30T06:28:46.430Z,7.15
2022-09-30T06:29:46.431Z,7.13
2022-09-30T06:30:46.463Z,7.18
2022-09-30T06:31:46.498Z,7.19
2022-09-30T06:32:46.394Z,7.24
2022-09-30T06:33:46.393Z,7.24
2022-09-30T06:34:45.364Z,7.26
2022-09-30T06:35:46.376Z,7.31
2022-09-30T06:36:46.324Z,7.33
2022-09-30T06:37:46.317Z,7.37
2022-09-30T06:38:46.305Z,7.40
2022-09-30T06:39:46.294Z,7.43
2022-09-30T06:40:46.312Z,7.44
2022-09-30T06:41:46.259Z,7.46
2022-09-30T06:42:46.240Z,7.49
2022-09-30T06:43:49.993Z,7.50
2022-09-30T06:44:52.566Z,7.54
2022-09-30T06:45:46.280Z,7.57
2022-09-30T06:46:53.641Z,7.58
2022-09-30T06:47:57.208Z,7.62
2022-09-30T06:48:46.178Z,7.64
2022-09-30T06:49:49.951Z,7.68
2022-09-30T06:50:56.810Z,7.76
2022-09-30T06:51:46.153Z,7.81
2022-09-30T06:52:46.119Z,7.88
2022-09-30T06:53:48.128Z,7.94
2022-09-30T06:54:46.094Z,7.98
2022-09-30T06:55:46.087Z,8.02
2022-09-30T06:56:46.058Z,8.06
2022-09-30T06:57:46.071Z,8.12
2022-09-30T06:58:46.037Z,8.10
2022-09-30T06:59:46.030Z,8.13
2022-09-30T07:00:46.121Z,8.17
2022-09-30T07:01:46.081Z,8.20
2022-09-30T07:02:45.984Z,8.20
2022-09-30T07:03:45.977Z,8.21
2022-09-30T07:04:45.952Z,8.24
2022-09-30T07:05:45.965Z,8.21
2022-09-30T07:06:45.921Z,8.19
2022-09-30T07:07:45.915Z,8.20
2022-09-30T07:08:45.928Z,8.20
2022-09-30T07:09:45.935Z,8.19
2022-09-30T07:10:45.896Z,8.20
2022-09-30T07:11:45.874Z,8.20
2022-09-30T07:12:45.861Z,8.23
2022-09-30T07:13:45.860Z,8.28
2022-09-30T07:14:45.831Z,8.24
2022-09-30T07:15:45.850Z,8.23
2022-09-30T07:16:45.852Z,8.28
2022-09-30T07:17:45.794Z,8.32
2022-09-30T07:18:45.817Z,8.37
2022-09-30T07:19:45.764Z,8.38
2022-09-30T07:20:45.774Z,8.42
2022-09-30T07:21:45.747Z,8.49
2022-09-30T07:22:45.734Z,8.55
2022-09-30T07:23:45.717Z,8.60
2022-09-30T07:24:45.741Z,8.55
2022-09-30T07:25:45.690Z,8.56
2022-09-30T07:26:45.669Z,8.65
2022-09-30T07:27:45.760Z,8.63
2022-09-30T07:28:45.639Z,8.67
2022-09-30T07:30:07.783Z,8.72
2022-09-30T07:30:45.628Z,8.75
2022-09-30T07:31:45.649Z,8.80
2022-09-30T07:32:45.587Z,8.90
2022-09-30T07:33:45.583Z,8.89
2022-09-30T07:34:45.558Z,8.92
2022-09-30T07:35:45.573Z,8.99
2022-09-30T07:36:45.524Z,8.96
2022-09-30T07:37:45.525Z,8.98
2022-09-30T07:38:45.500Z,8.96
2022-09-30T07:39:45.502Z,8.95
2022-09-30T07:40:45.487Z,8.98
2022-09-30T07:41:45.471Z,8.96
2022-09-30T07:42:45.729Z,8.90
2022-09-30T07:43:45.439Z,8.92
2022-09-30T07:44:45.416Z,8.92
2022-09-30T07:45:45.452Z,8.95
2022-09-30T07:46:45.399Z,8.95
2022-09-30T07:47:48.453Z,9.03
2022-09-30T07:48:45.372Z,9.04
2022-09-30T07:49:45.371Z,9.06
2022-09-30T07:50:45.361Z,9.14
2022-09-30T07:51:45.498Z,9.24
2022-09-30T07:52:45.311Z,9.24
2022-09-30T07:53:45.317Z,9.32
2022-09-30T07:54:50.208Z,9.42
2022-09-30T07:55:45.301Z,9.42
2022-09-30T07:57:08.812Z,9.42
2022-09-30T07:57:45.257Z,9.47
2022-09-30T07:58:45.223Z,9.50
2022-09-30T07:59:45.256Z,9.51
2022-09-30T08:00:45.231Z,9.47
2022-09-30T08:01:45.203Z,9.44
2022-09-30T08:02:45.308Z,9.50
2022-09-30T08:03:45.172Z,9.55
2022-09-30T08:04:45.306Z,9.62
2022-09-30T08:05:45.152Z,9.59
2022-09-30T08:06:45.136Z,9.59
2022-09-30T08:07:45.125Z,9.57
2022-09-30T08:08:45.113Z,9.55
2022-09-30T08:09:45.178Z,9.55
2022-09-30T08:10:45.125Z,9.60
2022-09-30T08:11:45.084Z,9.70
2022-09-30T08:12:45.092Z,9.84
2022-09-30T08:13:45.084Z,9.90
2022-09-30T08:14:45.048Z,9.93
2022-09-30T08:15:45.037Z,9.99
2022-09-30T08:16:45.060Z,10.08
2022-09-30T08:17:45.027Z,10.20
2022-09-30T08:18:44.992Z,10.30
2022-09-30T08:19:44.964Z,10.46
2022-09-30T08:20:44.944Z,10.73
2022-09-30T08:21:45.072Z,10.95
2022-09-30T08:22:44.959Z,11.33
2022-09-30T08:23:44.911Z,11.99
2022-09-30T08:24:44.888Z,12.77
2022-09-30T08:25:44.892Z,13.32
2022-09-30T08:26:44.949Z,13.97
2022-09-30T08:27:44.857Z,14.37
2022-09-30T08:28:44.837Z,14.52
2022-09-30T08:30:04.191Z,14.53
2022-09-30T08:30:44.836Z,14.34
2022-09-30T08:31:44.901Z,14.53
2022-09-30T08:32:44.808Z,14.79
2022-09-30T08:33:44.789Z,14.67
2022-09-30T08:34:44.758Z,14.79
2022-09-30T08:35:44.778Z,15.19
2022-09-30T08:36:44.778Z,14.90
2022-09-30T08:37:44.722Z,14.67
2022-09-30T08:38:44.717Z,14.73
2022-09-30T08:39:44.755Z,14.90
2022-09-30T08:40:44.698Z,15.50
2022-09-30T08:41:44.678Z,15.51
2022-09-30T08:42:50.596Z,15.72
2022-09-30T08:43:44.667Z,15.81
2022-09-30T08:44:44.633Z,15.99
2022-09-30T08:45:44.818Z,16.08
2022-09-30T08:46:44.691Z,15.98
2022-09-30T08:47:44.615Z,15.93
2022-09-30T08:48:44.590Z,16.22
2022-09-30T08:49:44.565Z,16.49
2022-09-30T08:50:44.569Z,16.57
2022-09-30T08:51:44.548Z,15.90
2022-09-30T08:52:48.813Z,15.41
2022-09-30T08:53:44.501Z,14.99
2022-09-30T08:54:44.522Z,15.17
2022-09-30T08:55:44.528Z,15.63
2022-09-30T08:56:44.465Z,15.29
2022-09-30T08:57:47.392Z,15.22
2022-09-30T08:58:44.464Z,15.07
2022-09-30T08:59:44.428Z,14.89
2022-09-30T09:00:44.556Z,14.86
2022-09-30T09:01:44.423Z,14.78
2022-09-30T09:02:44.483Z,15.30
2022-09-30T09:03:44.372Z,15.69
2022-09-30T09:04:44.388Z,15.54
2022-09-30T09:05:47.372Z,15.44
2022-09-30T09:06:44.390Z,15.95
2022-09-30T09:07:44.334Z,16.29
2022-09-30T09:08:44.322Z,16.28
2022-09-30T09:09:44.297Z,16.43
2022-09-30T09:10:44.305Z,16.26
2022-09-30T09:11:44.297Z,16.21
2022-09-30T09:12:44.274Z,16.28
2022-09-30T09:13:44.248Z,16.39
2022-09-30T09:14:44.232Z,16.34
2022-09-30T09:15:44.234Z,16.58
2022-09-30T09:16:44.266Z,16.47
2022-09-30T09:17:54.175Z,16.59
2022-09-30T09:18:44.208Z,16.79
2022-09-30T09:19:44.187Z,16.82
2022-09-30T09:20:44.178Z,16.73
2022-09-30T09:21:44.129Z,16.49
2022-09-30T09:22:44.137Z,16.36
2022-09-30T09:23:44.112Z,16.40
2022-09-30T09:24:44.100Z,16.49
2022-09-30T09:25:44.109Z,16.76
2022-09-30T09:26:44.084Z,17.22
2022-09-30T09:27:44.125Z,17.31
2022-09-30T09:28:44.055Z,17.43
2022-09-30T09:29:44.035Z,17.30
2022-09-30T09:30:44.087Z,17.34
2022-09-30T09:31:44.072Z,16.90
2022-09-30T09:32:44.008Z,16.61
2022-09-30T09:33:43.978Z,16.36
2022-09-30T09:34:43.973Z,16.51
2022-09-30T09:35:43.969Z,16.52
2022-09-30T09:36:43.983Z,16.49
2022-09-30T09:37:43.934Z,16.77
2022-09-30T09:38:43.921Z,17.06
2022-09-30T09:39:43.911Z,16.87
2022-09-30T09:40:44.027Z,16.62
2022-09-30T09:41:43.866Z,16.46
2022-09-30T09:42:43.868Z,16.52
2022-09-30T09:43:43.925Z,16.52
2022-09-30T09:44:43.833Z,16.59
2022-09-30T09:45:43.931Z,16.55
2022-09-30T09:46:43.834Z,16.34
2022-09-30T09:47:43.829Z,16.26
2022-09-30T09:48:43.800Z,16.67
2022-09-30T09:49:43.765Z,17.28
2022-09-30T09:50:43.771Z,17.45
2022-09-30T09:51:43.746Z,17.87
2022-09-30T09:52:43.753Z,18.05
2022-09-30T09:53:43.709Z,18.06
2022-09-30T09:54:43.710Z,18.49
2022-09-30T09:55:43.733Z,18.82
2022-09-30T09:56:43.683Z,19.08
2022-09-30T09:57:43.663Z,19.34
2022-09-30T09:58:43.712Z,18.83
2022-09-30T09:59:43.634Z,18.06
2022-09-30T10:00:43.770Z,17.94
2022-09-30T10:01:43.747Z,18.11
2022-09-30T10:02:43.600Z,18.26
2022-09-30T10:03:43.616Z,18.28
2022-09-30T10:04:43.568Z,17.99
2022-09-30T10:05:43.576Z,17.54
2022-09-30T10:06:43.578Z,17.54
2022-09-30T10:07:43.549Z,17.43
2022-09-30T10:08:43.532Z,17.22
2022-09-30T10:09:43.497Z,17.34
2022-09-30T10:10:43.528Z,17.66
2022-09-30T10:11:43.517Z,17.94
2022-09-30T10:12:43.467Z,17.73
2022-09-30T10:13:43.446Z,17.75
2022-09-30T10:14:43.474Z,17.45
2022-09-30T10:15:43.455Z,17.59
2022-09-30T10:16:43.420Z,17.76
2022-09-30T10:17:43.440Z,17.54
2022-09-30T10:18:43.389Z,17.56
2022-09-30T10:19:43.425Z,17.72
2022-09-30T10:20:43.450Z,18.06
2022-09-30T10:21:43.367Z,18.28
2022-09-30T10:22:43.338Z,18.78
2022-09-30T10:23:43.322Z,18.76
2022-09-30T10:24:43.329Z,18.48
2022-09-30T10:25:43.305Z,18.11
2022-09-30T10:26:46.172Z,18.48
2022-09-30T10:27:43.320Z,18.85
2022-09-30T10:28:43.283Z,18.94
2022-09-30T10:35:12.430Z,18.68
2022-09-30T10:36:13.397Z,18.88
2022-09-30T10:37:13.389Z,18.97
2022-09-30T10:38:13.367Z,18.93
2022-09-30T10:39:13.507Z,19.04
2022-09-30T10:40:13.372Z,19.31
2022-09-30T10:41:13.327Z,19.42
2022-09-30T10:42:13.385Z,19.50
2022-09-30T10:43:13.302Z,19.56
2022-09-30T10:44:13.302Z,19.31
2022-09-30T10:45:13.292Z,19.26
2022-09-30T10:46:25.672Z,19.50
2022-09-30T10:47:13.275Z,19.90
2022-09-30T10:48:13.236Z,19.82
2022-09-30T10:49:13.221Z,19.59
2022-09-30T10:50:13.377Z,19.60
2022-09-30T10:51:13.193Z,19.60
2022-09-30T10:52:13.227Z,19.60
2022-09-30T10:53:13.243Z,19.82
2022-09-30T10:54:13.166Z,19.63
2022-09-30T10:55:17.966Z,19.30
2022-09-30T10:56:13.141Z,19.34
2022-09-30T10:57:13.126Z,19.01
2022-09-30T10:58:13.109Z,18.91
2022-09-30T10:59:13.091Z,19.41
2022-09-30T11:00:13.119Z,19.32
2022-09-30T11:01:13.086Z,19.07
2022-09-30T11:02:13.134Z,18.96
2022-09-30T11:03:13.106Z,18.96
2022-09-30T11:04:13.049Z,19.00
2022-09-30T11:05:13.036Z,19.27
2022-09-30T11:06:13.007Z,19.42
2022-09-30T11:07:12.991Z,19.78
2022-09-30T11:08:12.981Z,20.25
2022-09-30T11:09:12.965Z,20.86
2022-09-30T11:10:12.991Z,21.07
2022-09-30T11:11:12.936Z,20.93
2022-09-30T11:12:13.024Z,20.34
2022-09-30T11:13:12.913Z,19.64
2022-09-30T11:14:12.912Z,19.71
2022-09-30T11:15:12.898Z,19.57
2022-09-30T11:16:12.897Z,19.09
2022-09-30T11:17:12.869Z,18.78
2022-09-30T11:18:12.855Z,18.83
2022-09-30T11:19:12.831Z,19.05
2022-09-30T11:20:12.854Z,19.45
2022-09-30T11:21:12.862Z,19.45
2022-09-30T11:22:12.809Z,19.67
2022-09-30T11:23:12.788Z,19.53
2022-09-30T11:24:12.776Z,19.30
2022-09-30T11:25:12.813Z,19.71
2022-09-30T11:26:12.750Z,20.17
2022-09-30T11:27:12.736Z,20.07
2022-09-30T11:28:12.752Z,19.42
2022-09-30T11:29:12.709Z,19.60
2022-09-30T11:30:12.718Z,19.22
2022-09-30T11:31:12.725Z,19.08
2022-09-30T11:32:12.796Z,19.50
2022-09-30T11:33:12.654Z,19.94
2022-09-30T11:34:12.653Z,19.70
2022-09-30T11:35:12.652Z,19.57
2022-09-30T11:36:12.619Z,19.50
2022-09-30T11:37:12.599Z,19.38
2022-09-30T11:38:12.607Z,19.47
2022-09-30T11:39:12.583Z,19.44
2022-09-30T11:40:12.640Z,19.67
2022-09-30T11:41:12.565Z,19.99
2022-09-30T11:42:12.558Z,19.60
2022-09-30T11:43:12.529Z,19.49
2022-09-30T11:44:12.520Z,19.42
2022-09-30T11:45:12.521Z,19.26
2022-09-30T11:46:12.632Z,19.05
2022-09-30T11:47:12.472Z,19.00
2022-09-30T11:48:12.461Z,18.89
2022-09-30T11:49:12.458Z,18.83
2022-09-30T11:50:12.521Z,19.26
2022-09-30T11:51:12.427Z,19.52
2022-09-30T11:52:12.472Z,19.89
2022-09-30T11:53:12.399Z,19.96
2022-09-30T11:54:12.387Z,20.09
2022-09-30T11:55:15.382Z,20.08
2022-09-30T11:56:12.374Z,19.99
2022-09-30T11:57:12.403Z,19.81
2022-09-30T11:58:39.520Z,19.78
2022-09-30T11:59:12.326Z,19.99
2022-09-30T12:00:12.373Z,20.27
2022-09-30T12:01:12.302Z,20.71
2022-09-30T12:02:12.418Z,20.39
2022-09-30T12:03:12.303Z,20.33
2022-09-30T12:04:12.274Z,20.22
2022-09-30T12:05:12.240Z,19.92
2022-09-30T12:06:12.257Z,19.59
2022-09-30T12:07:12.215Z,19.77
2022-09-30T12:08:12.204Z,20.05
2022-09-30T12:09:12.194Z,20.37
2022-09-30T12:10:12.309Z,20.08
2022-09-30T12:11:12.161Z,20.05
2022-09-30T12:12:16.309Z,19.87
2022-09-30T12:13:12.138Z,19.86
2022-09-30T12:14:12.150Z,20.00
2022-09-30T12:15:12.127Z,20.04
2022-09-30T12:16:12.139Z,20.00
2022-09-30T12:17:12.085Z,19.93
2022-09-30T12:18:12.073Z,19.67
2022-09-30T12:19:12.063Z,19.12
2022-09-30T12:20:12.069Z,18.71
2022-09-30T12:21:12.031Z,18.91
2022-09-30T12:22:12.020Z,18.93
2022-09-30T12:23:12.030Z,18.94
2022-09-30T12:24:12.003Z,19.34
2022-09-30T12:25:11.992Z,19.45
2022-09-30T12:26:11.990Z,19.39
2022-09-30T12:27:11.950Z,19.54
2022-09-30T12:28:12.022Z,19.45
2022-09-30T12:29:11.939Z,19.56
2022-09-30T12:30:11.918Z,19.63
2022-09-30T12:31:11.908Z,19.38
2022-09-30T12:32:11.938Z,19.20
2022-09-30T12:33:11.881Z,19.35
2022-09-30T12:34:17.937Z,19.27
2022-09-30T12:35:11.865Z,19.24
2022-09-30T12:40:01.025Z,19.53
2022-09-30T12:41:01.996Z,19.42
2022-09-30T12:42:02.014Z,19.27
2022-09-30T12:43:01.974Z,18.98
2022-09-30T12:44:01.941Z,18.83
2022-09-30T12:45:01.983Z,18.58
2022-09-30T12:46:02.011Z,18.39
2022-09-30T12:47:01.937Z,17.91
2022-09-30T12:48:01.916Z,17.52
2022-09-30T12:49:01.925Z,17.31
2022-09-30T12:50:01.950Z,17.28
2022-09-30T12:51:01.859Z,17.25
2022-09-30T12:52:01.879Z,17.22
2022-09-30T12:53:01.847Z,17.10
2022-09-30T12:54:01.897Z,17.09
2022-09-30T12:55:01.910Z,17.25
2022-09-30T12:56:01.791Z,17.46
2022-09-30T12:57:01.782Z,17.73
2022-09-30T12:58:01.830Z,17.91
2022-09-30T12:59:01.760Z,18.20
2022-09-30T13:00:01.801Z,18.33
2022-09-30T13:01:01.846Z,18.34
2022-09-30T13:02:01.777Z,18.45
2022-09-30T13:03:01.707Z,18.45
2022-09-30T13:04:01.705Z,18.60
2022-09-30T13:05:01.677Z,18.54
2022-09-30T13:06:01.711Z,18.43
2022-09-30T13:07:01.671Z,18.36
2022-09-30T13:08:01.643Z,18.38
2022-09-30T13:09:01.648Z,18.39
2022-09-30T13:10:01.628Z,18.23
2022-09-30T13:11:01.604Z,18.09
2022-09-30T13:12:01.584Z,18.09
2022-09-30T13:13:01.582Z,18.27
2022-09-30T13:14:01.578Z,18.42
2022-09-30T13:15:12.072Z,18.15
2022-09-30T13:16:01.582Z,17.88
2022-09-30T13:17:01.596Z,17.72
2022-09-30T13:18:01.488Z,17.81